sensor_id;sensor_type;location;lat;lon;timestamp;P1;durP1;ratioP1;P2;durP2;ratioP2
43248;SDS011;29216;51.248;6.808;2023-05-10T00:00:07;15.95;;;11.23;;
43248;SDS011;29216;51.248;6.808;2023-05-10T00:02:34;16.83;;;11.07;;
43248;SDS011;29216;51.248;6.808;2023-05-10T00:05:00;17.15;;;11.13;;
43248;SDS011;29216;51.248;6.808;2023-05-10T00:07:26;15.10;;;10.55;;
43248;SDS011;29216;51.248;6.808;2023-05-10T00:09:52;16.38;;;10.82;;
43248;SDS011;29216;51.248;6.808;2023-05-10T00:12:18;16.17;;;10.95;;
43248;SDS011;29216;51.248;6.808;2023-05-10T00:14:43;16.38;;;11.15;;
43248;SDS011;29216;51.248;6.808;2023-05-10T00:17:10;20.60;;;11.98;;
43248;SDS011;29216;51.248;6.808;2023-05-10T00:19:36;17.10;;;11.05;;
43248;SDS011;29216;51.248;6.808;2023-05-10T00:22:05;18.77;;;11.65;;
43248;SDS011;29216;51.248;6.808;2023-05-10T00:24:33;18.73;;;11.45;;
43248;SDS011;29216;51.248;6.808;2023-05-10T00:26:59;17.63;;;11.50;;
43248;SDS011;29216;51.248;6.808;2023-05-10T00:29:25;17.58;;;11.85;;
43248;SDS011;29216;51.248;6.808;2023-05-10T00:31:53;19.50;;;12.45;;
43248;SDS011;29216;51.248;6.808;2023-05-10T00:34:19;21.88;;;12.45;;
43248;SDS011;29216;51.248;6.808;2023-05-10T00:36:45;21.23;;;11.73;;
43248;SDS011;29216;51.248;6.808;2023-05-10T00:39:13;19.67;;;12.20;;
43248;SDS011;29216;51.248;6.808;2023-05-10T00:41:39;25.05;;;12.32;;
43248;SDS011;29216;51.248;6.808;2023-05-10T00:44:05;19.65;;;12.35;;
43248;SDS011;29216;51.248;6.808;2023-05-10T00:46:34;19.45;;;11.90;;
43248;SDS011;29216;51.248;6.808;2023-05-10T00:49:01;15.75;;;9.63;;
43248;SDS011;29216;51.248;6.808;2023-05-10T00:51:27;11.25;;;9.27;;
43248;SDS011;29216;51.248;6.808;2023-05-10T00:53:53;14.48;;;8.98;;
43248;SDS011;29216;51.248;6.808;2023-05-10T00:56:20;13.07;;;9.30;;
43248;SDS011;29216;51.248;6.808;2023-05-10T00:58:48;14.85;;;8.63;;
43248;SDS011;29216;51.248;6.808;2023-05-10T01:01:14;14.50;;;8.70;;
43248;SDS011;29216;51.248;6.808;2023-05-10T01:03:40;12.63;;;8.52;;
43248;SDS011;29216;51.248;6.808;2023-05-10T01:06:06;13.27;;;8.13;;
43248;SDS011;29216;51.248;6.808;2023-05-10T01:08:33;13.07;;;9.27;;
43248;SDS011;29216;51.248;6.808;2023-05-10T01:10:59;13.13;;;8.80;;
43248;SDS011;29216;51.248;6.808;2023-05-10T01:13:58;13.10;;;9.10;;
43248;SDS011;29216;51.248;6.808;2023-05-10T01:16:17;14.25;;;9.25;;
43248;SDS011;29216;51.248;6.808;2023-05-10T01:18:43;16.05;;;10.55;;
43248;SDS011;29216;51.248;6.808;2023-05-10T01:21:17;16.17;;;10.93;;
43248;SDS011;29216;51.248;6.808;2023-05-10T01:23:54;15.68;;;10.65;;
43248;SDS011;29216;51.248;6.808;2023-05-10T01:29:05;15.75;;;10.77;;
43248;SDS011;29216;51.248;6.808;2023-05-10T01:34:07;16.52;;;10.65;;
43248;SDS011;29216;51.248;6.808;2023-05-10T01:36:48;17.20;;;10.95;;
43248;SDS011;29216;51.248;6.808;2023-05-10T01:39:17;15.50;;;9.53;;
43248;SDS011;29216;51.248;6.808;2023-05-10T01:41:57;15.68;;;10.82;;
43248;SDS011;29216;51.248;6.808;2023-05-10T01:44:39;15.10;;;10.32;;
43248;SDS011;29216;51.248;6.808;2023-05-10T01:47:10;15.85;;;10.18;;
43248;SDS011;29216;51.248;6.808;2023-05-10T01:49:39;14.50;;;10.45;;
43248;SDS011;29216;51.248;6.808;2023-05-10T01:52:12;16.40;;;11.25;;
43248;SDS011;29216;51.248;6.808;2023-05-10T01:54:41;16.70;;;9.65;;
43248;SDS011;29216;51.248;6.808;2023-05-10T01:57:08;16.05;;;9.40;;
43248;SDS011;29216;51.248;6.808;2023-05-10T01:59:37;14.77;;;10.52;;
43248;SDS011;29216;51.248;6.808;2023-05-10T02:02:06;15.52;;;10.63;;
43248;SDS011;29216;51.248;6.808;2023-05-10T02:04:33;16.58;;;10.43;;
43248;SDS011;29216;51.248;6.808;2023-05-10T02:07:01;16.88;;;10.07;;
43248;SDS011;29216;51.248;6.808;2023-05-10T02:09:27;16.27;;;10.18;;
43248;SDS011;29216;51.248;6.808;2023-05-10T02:11:55;16.85;;;11.60;;
43248;SDS011;29216;51.248;6.808;2023-05-10T02:14:22;16.52;;;10.70;;
43248;SDS011;29216;51.248;6.808;2023-05-10T02:16:50;17.85;;;11.02;;
43248;SDS011;29216;51.248;6.808;2023-05-10T02:19:16;20.20;;;11.95;;
43248;SDS011;29216;51.248;6.808;2023-05-10T02:21:43;20.30;;;12.52;;
43248;SDS011;29216;51.248;6.808;2023-05-10T02:24:10;18.58;;;11.95;;
43248;SDS011;29216;51.248;6.808;2023-05-10T02:26:37;21.63;;;12.50;;
43248;SDS011;29216;51.248;6.808;2023-05-10T02:29:03;18.60;;;12.13;;
43248;SDS011;29216;51.248;6.808;2023-05-10T02:31:32;19.40;;;11.38;;
43248;SDS011;29216;51.248;6.808;2023-05-10T02:33:59;16.20;;;11.95;;
43248;SDS011;29216;51.248;6.808;2023-05-10T02:36:26;18.48;;;11.32;;
43248;SDS011;29216;51.248;6.808;2023-05-10T02:38:53;17.38;;;12.07;;
43248;SDS011;29216;51.248;6.808;2023-05-10T02:41:19;16.73;;;11.20;;
43248;SDS011;29216;51.248;6.808;2023-05-10T02:43:47;15.98;;;10.70;;
43248;SDS011;29216;51.248;6.808;2023-05-10T02:46:15;16.65;;;11.25;;
43248;SDS011;29216;51.248;6.808;2023-05-10T02:48:41;17.85;;;10.85;;
43248;SDS011;29216;51.248;6.808;2023-05-10T02:51:07;15.73;;;10.60;;
43248;SDS011;29216;51.248;6.808;2023-05-10T02:53:34;17.90;;;10.68;;
43248;SDS011;29216;51.248;6.808;2023-05-10T02:56:03;16.80;;;9.85;;
43248;SDS011;29216;51.248;6.808;2023-05-10T02:58:32;15.43;;;10.50;;
43248;SDS011;29216;51.248;6.808;2023-05-10T03:00:58;13.48;;;9.55;;
43248;SDS011;29216;51.248;6.808;2023-05-10T03:03:25;11.80;;;8.57;;
43248;SDS011;29216;51.248;6.808;2023-05-10T03:05:51;15.45;;;9.60;;
43248;SDS011;29216;51.248;6.808;2023-05-10T03:08:20;14.82;;;9.30;;
43248;SDS011;29216;51.248;6.808;2023-05-10T03:10:54;13.60;;;8.77;;
43248;SDS011;29216;51.248;6.808;2023-05-10T03:15:57;15.23;;;9.90;;
43248;SDS011;29216;51.248;6.808;2023-05-10T03:18:33;18.58;;;9.88;;
43248;SDS011;29216;51.248;6.808;2023-05-10T03:21:04;14.73;;;9.30;;
43248;SDS011;29216;51.248;6.808;2023-05-10T03:23:35;15.45;;;10.05;;
43248;SDS011;29216;51.248;6.808;2023-05-10T03:26:03;16.73;;;9.75;;
43248;SDS011;29216;51.248;6.808;2023-05-10T03:28:33;20.00;;;10.52;;
43248;SDS011;29216;51.248;6.808;2023-05-10T03:31:00;16.48;;;10.25;;
43248;SDS011;29216;51.248;6.808;2023-05-10T03:33:26;16.70;;;10.40;;
43248;SDS011;29216;51.248;6.808;2023-05-10T03:35:52;16.40;;;10.93;;
43248;SDS011;29216;51.248;6.808;2023-05-10T03:38:18;14.02;;;9.70;;
43248;SDS011;29216;51.248;6.808;2023-05-10T03:40:44;13.38;;;9.20;;
43248;SDS011;29216;51.248;6.808;2023-05-10T03:43:10;12.98;;;9.40;;
43248;SDS011;29216;51.248;6.808;2023-05-10T03:45:36;14.73;;;10.40;;
43248;SDS011;29216;51.248;6.808;2023-05-10T03:48:02;17.42;;;10.38;;
43248;SDS011;29216;51.248;6.808;2023-05-10T03:50:28;18.27;;;10.77;;
43248;SDS011;29216;51.248;6.808;2023-05-10T03:52:55;16.27;;;10.73;;
43248;SDS011;29216;51.248;6.808;2023-05-10T03:55:21;14.05;;;10.27;;
43248;SDS011;29216;51.248;6.808;2023-05-10T03:57:47;19.67;;;12.00;;
43248;SDS011;29216;51.248;6.808;2023-05-10T04:00:14;18.63;;;11.90;;
43248;SDS011;29216;51.248;6.808;2023-05-10T04:02:40;18.35;;;11.13;;
43248;SDS011;29216;51.248;6.808;2023-05-10T04:05:07;20.35;;;12.82;;
43248;SDS011;29216;51.248;6.808;2023-05-10T04:07:33;15.90;;;11.80;;
43248;SDS011;29216;51.248;6.808;2023-05-10T04:09:59;21.15;;;13.02;;
43248;SDS011;29216;51.248;6.808;2023-05-10T04:12:25;22.20;;;13.98;;
43248;SDS011;29216;51.248;6.808;2023-05-10T04:14:51;21.10;;;12.80;;
43248;SDS011;29216;51.248;6.808;2023-05-10T04:17:17;20.80;;;13.40;;
43248;SDS011;29216;51.248;6.808;2023-05-10T04:19:44;20.60;;;12.73;;
43248;SDS011;29216;51.248;6.808;2023-05-10T04:22:10;23.00;;;13.10;;
43248;SDS011;29216;51.248;6.808;2023-05-10T04:24:36;21.10;;;13.38;;
43248;SDS011;29216;51.248;6.808;2023-05-10T04:27:02;23.02;;;14.15;;
43248;SDS011;29216;51.248;6.808;2023-05-10T04:29:28;21.83;;;14.13;;
43248;SDS011;29216;51.248;6.808;2023-05-10T04:31:54;23.92;;;14.45;;
43248;SDS011;29216;51.248;6.808;2023-05-10T04:34:22;23.08;;;15.52;;
43248;SDS011;29216;51.248;6.808;2023-05-10T04:36:49;28.48;;;17.05;;
43248;SDS011;29216;51.248;6.808;2023-05-10T04:39:15;27.10;;;15.20;;
43248;SDS011;29216;51.248;6.808;2023-05-10T04:41:41;25.30;;;16.33;;
43248;SDS011;29216;51.248;6.808;2023-05-10T04:44:07;29.75;;;16.83;;
43248;SDS011;29216;51.248;6.808;2023-05-10T04:46:33;27.98;;;17.00;;
43248;SDS011;29216;51.248;6.808;2023-05-10T04:48:59;30.00;;;16.60;;
43248;SDS011;29216;51.248;6.808;2023-05-10T04:51:25;30.55;;;17.23;;
43248;SDS011;29216;51.248;6.808;2023-05-10T04:53:51;29.17;;;16.27;;
43248;SDS011;29216;51.248;6.808;2023-05-10T04:56:17;28.25;;;16.70;;
43248;SDS011;29216;51.248;6.808;2023-05-10T04:58:43;33.75;;;18.38;;
43248;SDS011;29216;51.248;6.808;2023-05-10T05:01:09;26.55;;;16.10;;
43248;SDS011;29216;51.248;6.808;2023-05-10T05:03:35;29.30;;;16.60;;
43248;SDS011;29216;51.248;6.808;2023-05-10T05:06:01;31.23;;;18.70;;
43248;SDS011;29216;51.248;6.808;2023-05-10T05:08:27;29.90;;;17.95;;
43248;SDS011;29216;51.248;6.808;2023-05-10T05:10:53;29.27;;;16.35;;
43248;SDS011;29216;51.248;6.808;2023-05-10T05:13:19;27.95;;;17.48;;
43248;SDS011;29216;51.248;6.808;2023-05-10T05:15:45;28.77;;;17.52;;
43248;SDS011;29216;51.248;6.808;2023-05-10T05:18:11;28.55;;;17.73;;
43248;SDS011;29216;51.248;6.808;2023-05-10T05:20:37;29.70;;;17.60;;
43248;SDS011;29216;51.248;6.808;2023-05-10T05:23:03;28.33;;;17.40;;
43248;SDS011;29216;51.248;6.808;2023-05-10T05:25:29;29.55;;;17.63;;
43248;SDS011;29216;51.248;6.808;2023-05-10T05:27:55;25.65;;;16.15;;
43248;SDS011;29216;51.248;6.808;2023-05-10T05:30:21;25.67;;;15.82;;
43248;SDS011;29216;51.248;6.808;2023-05-10T05:32:47;25.52;;;16.52;;
43248;SDS011;29216;51.248;6.808;2023-05-10T05:35:13;24.10;;;15.43;;
43248;SDS011;29216;51.248;6.808;2023-05-10T05:37:39;23.80;;;15.85;;
43248;SDS011;29216;51.248;6.808;2023-05-10T05:40:05;22.42;;;15.20;;
43248;SDS011;29216;51.248;6.808;2023-05-10T05:42:32;24.83;;;14.88;;
43248;SDS011;29216;51.248;6.808;2023-05-10T05:44:58;25.60;;;15.98;;
43248;SDS011;29216;51.248;6.808;2023-05-10T05:47:24;24.38;;;15.38;;
43248;SDS011;29216;51.248;6.808;2023-05-10T05:49:50;22.77;;;14.00;;
43248;SDS011;29216;51.248;6.808;2023-05-10T05:52:16;22.20;;;14.18;;
43248;SDS011;29216;51.248;6.808;2023-05-10T05:54:42;24.70;;;14.88;;
43248;SDS011;29216;51.248;6.808;2023-05-10T05:57:08;21.13;;;13.95;;
43248;SDS011;29216;51.248;6.808;2023-05-10T05:59:34;21.80;;;13.52;;
43248;SDS011;29216;51.248;6.808;2023-05-10T06:02:00;21.13;;;13.10;;
43248;SDS011;29216;51.248;6.808;2023-05-10T06:04:26;27.52;;;13.88;;
43248;SDS011;29216;51.248;6.808;2023-05-10T06:06:52;19.83;;;13.88;;
43248;SDS011;29216;51.248;6.808;2023-05-10T06:09:18;19.70;;;12.65;;
43248;SDS011;29216;51.248;6.808;2023-05-10T06:11:44;23.13;;;13.93;;
43248;SDS011;29216;51.248;6.808;2023-05-10T06:14:11;25.35;;;16.75;;
43248;SDS011;29216;51.248;6.808;2023-05-10T06:16:37;22.15;;;14.30;;
43248;SDS011;29216;51.248;6.808;2023-05-10T06:19:03;20.13;;;12.80;;
43248;SDS011;29216;51.248;6.808;2023-05-10T06:21:29;21.52;;;13.57;;
43248;SDS011;29216;51.248;6.808;2023-05-10T06:23:55;22.30;;;14.13;;
43248;SDS011;29216;51.248;6.808;2023-05-10T06:26:21;21.95;;;13.40;;
43248;SDS011;29216;51.248;6.808;2023-05-10T06:28:47;21.67;;;14.23;;
43248;SDS011;29216;51.248;6.808;2023-05-10T06:31:13;23.90;;;15.27;;
43248;SDS011;29216;51.248;6.808;2023-05-10T06:33:39;27.08;;;16.58;;
43248;SDS011;29216;51.248;6.808;2023-05-10T06:36:05;27.75;;;16.20;;
43248;SDS011;29216;51.248;6.808;2023-05-10T06:38:31;33.38;;;17.13;;
43248;SDS011;29216;51.248;6.808;2023-05-10T06:40:58;24.80;;;15.70;;
43248;SDS011;29216;51.248;6.808;2023-05-10T06:43:24;25.15;;;14.88;;
43248;SDS011;29216;51.248;6.808;2023-05-10T06:45:51;27.95;;;16.20;;
43248;SDS011;29216;51.248;6.808;2023-05-10T06:48:17;22.73;;;15.90;;
43248;SDS011;29216;51.248;6.808;2023-05-10T06:50:43;22.42;;;13.77;;
43248;SDS011;29216;51.248;6.808;2023-05-10T06:53:09;23.13;;;14.38;;
43248;SDS011;29216;51.248;6.808;2023-05-10T06:55:37;23.42;;;14.15;;
43248;SDS011;29216;51.248;6.808;2023-05-10T06:58:03;22.27;;;14.68;;
43248;SDS011;29216;51.248;6.808;2023-05-10T07:00:29;23.77;;;14.55;;
43248;SDS011;29216;51.248;6.808;2023-05-10T07:02:55;24.42;;;14.05;;
43248;SDS011;29216;51.248;6.808;2023-05-10T07:05:21;24.27;;;14.35;;
43248;SDS011;29216;51.248;6.808;2023-05-10T07:07:47;22.73;;;13.75;;
43248;SDS011;29216;51.248;6.808;2023-05-10T07:10:13;27.85;;;15.05;;
43248;SDS011;29216;51.248;6.808;2023-05-10T07:12:39;24.25;;;14.57;;
43248;SDS011;29216;51.248;6.808;2023-05-10T07:15:05;28.02;;;16.15;;
43248;SDS011;29216;51.248;6.808;2023-05-10T07:17:31;27.83;;;14.65;;
43248;SDS011;29216;51.248;6.808;2023-05-10T07:19:58;25.80;;;14.45;;
43248;SDS011;29216;51.248;6.808;2023-05-10T07:22:25;25.48;;;15.10;;
43248;SDS011;29216;51.248;6.808;2023-05-10T07:24:51;23.90;;;13.60;;
43248;SDS011;29216;51.248;6.808;2023-05-10T07:27:17;26.30;;;13.77;;
43248;SDS011;29216;51.248;6.808;2023-05-10T07:29:43;23.63;;;14.13;;
43248;SDS011;29216;51.248;6.808;2023-05-10T07:32:09;27.77;;;14.13;;
43248;SDS011;29216;51.248;6.808;2023-05-10T07:34:35;20.40;;;12.70;;
43248;SDS011;29216;51.248;6.808;2023-05-10T07:37:01;19.20;;;11.75;;
43248;SDS011;29216;51.248;6.808;2023-05-10T07:39:27;17.73;;;11.70;;
43248;SDS011;29216;51.248;6.808;2023-05-10T07:41:56;19.88;;;11.40;;
43248;SDS011;29216;51.248;6.808;2023-05-10T07:44:22;18.63;;;12.15;;
43248;SDS011;29216;51.248;6.808;2023-05-10T07:46:48;13.93;;;10.60;;
43248;SDS011;29216;51.248;6.808;2023-05-10T07:49:14;16.50;;;10.77;;
43248;SDS011;29216;51.248;6.808;2023-05-10T07:51:40;15.15;;;10.52;;
43248;SDS011;29216;51.248;6.808;2023-05-10T07:54:07;13.73;;;9.77;;
43248;SDS011;29216;51.248;6.808;2023-05-10T07:56:33;20.65;;;10.20;;
43248;SDS011;29216;51.248;6.808;2023-05-10T07:58:59;17.33;;;10.68;;
43248;SDS011;29216;51.248;6.808;2023-05-10T08:01:26;20.63;;;12.00;;
43248;SDS011;29216;51.248;6.808;2023-05-10T08:03:52;25.23;;;15.65;;
43248;SDS011;29216;51.248;6.808;2023-05-10T08:06:18;33.55;;;17.55;;
43248;SDS011;29216;51.248;6.808;2023-05-10T08:08:48;32.90;;;18.08;;
43248;SDS011;29216;51.248;6.808;2023-05-10T08:11:18;31.45;;;19.73;;
43248;SDS011;29216;51.248;6.808;2023-05-10T08:13:45;34.28;;;18.85;;
43248;SDS011;29216;51.248;6.808;2023-05-10T08:16:11;34.63;;;19.45;;
43248;SDS011;29216;51.248;6.808;2023-05-10T08:18:37;35.03;;;20.38;;
43248;SDS011;29216;51.248;6.808;2023-05-10T08:21:04;33.08;;;19.40;;
43248;SDS011;29216;51.248;6.808;2023-05-10T08:23:30;33.25;;;20.50;;
43248;SDS011;29216;51.248;6.808;2023-05-10T08:25:56;31.70;;;18.58;;
43248;SDS011;29216;51.248;6.808;2023-05-10T08:28:21;35.75;;;19.23;;
43248;SDS011;29216;51.248;6.808;2023-05-10T08:30:49;30.15;;;17.27;;
43248;SDS011;29216;51.248;6.808;2023-05-10T08:33:15;33.75;;;19.33;;
43248;SDS011;29216;51.248;6.808;2023-05-10T08:35:41;33.30;;;20.52;;
43248;SDS011;29216;51.248;6.808;2023-05-10T08:38:07;34.90;;;19.35;;
43248;SDS011;29216;51.248;6.808;2023-05-10T08:40:33;29.02;;;19.70;;
43248;SDS011;29216;51.248;6.808;2023-05-10T08:43:05;29.33;;;18.95;;
43248;SDS011;29216;51.248;6.808;2023-05-10T08:45:32;31.60;;;19.67;;
43248;SDS011;29216;51.248;6.808;2023-05-10T08:48:02;32.03;;;19.40;;
43248;SDS011;29216;51.248;6.808;2023-05-10T08:50:28;27.30;;;18.45;;
43248;SDS011;29216;51.248;6.808;2023-05-10T08:52:55;27.10;;;18.20;;
43248;SDS011;29216;51.248;6.808;2023-05-10T08:55:23;25.60;;;16.65;;
43248;SDS011;29216;51.248;6.808;2023-05-10T08:57:49;29.48;;;18.27;;
43248;SDS011;29216;51.248;6.808;2023-05-10T09:00:16;27.77;;;18.17;;
43248;SDS011;29216;51.248;6.808;2023-05-10T09:02:42;31.55;;;19.38;;
43248;SDS011;29216;51.248;6.808;2023-05-10T09:05:10;31.20;;;19.30;;
43248;SDS011;29216;51.248;6.808;2023-05-10T09:07:36;26.90;;;16.52;;
43248;SDS011;29216;51.248;6.808;2023-05-10T09:10:02;25.67;;;16.80;;
43248;SDS011;29216;51.248;6.808;2023-05-10T09:12:29;27.15;;;16.70;;
43248;SDS011;29216;51.248;6.808;2023-05-10T09:14:55;22.80;;;15.55;;
43248;SDS011;29216;51.248;6.808;2023-05-10T09:17:23;27.00;;;14.48;;
43248;SDS011;29216;51.248;6.808;2023-05-10T09:19:49;21.15;;;13.55;;
43248;SDS011;29216;51.248;6.808;2023-05-10T09:22:16;20.38;;;12.32;;
43248;SDS011;29216;51.248;6.808;2023-05-10T09:24:42;17.85;;;12.45;;
43248;SDS011;29216;51.248;6.808;2023-05-10T09:27:10;18.40;;;12.88;;
43248;SDS011;29216;51.248;6.808;2023-05-10T09:29:42;17.85;;;11.73;;
43248;SDS011;29216;51.248;6.808;2023-05-10T09:32:08;20.13;;;12.18;;
43248;SDS011;29216;51.248;6.808;2023-05-10T09:34:34;18.23;;;11.88;;
43248;SDS011;29216;51.248;6.808;2023-05-10T09:37:01;15.57;;;11.30;;
43248;SDS011;29216;51.248;6.808;2023-05-10T09:39:32;16.08;;;10.73;;
43248;SDS011;29216;51.248;6.808;2023-05-10T09:41:59;16.95;;;11.00;;
43248;SDS011;29216;51.248;6.808;2023-05-10T09:44:26;18.25;;;9.98;;
43248;SDS011;29216;51.248;6.808;2023-05-10T09:46:52;16.00;;;11.35;;
43248;SDS011;29216;51.248;6.808;2023-05-10T09:49:19;15.32;;;10.65;;
43248;SDS011;29216;51.248;6.808;2023-05-10T09:51:45;16.05;;;10.68;;
43248;SDS011;29216;51.248;6.808;2023-05-10T09:54:12;14.98;;;10.52;;
43248;SDS011;29216;51.248;6.808;2023-05-10T09:56:38;12.50;;;9.52;;
43248;SDS011;29216;51.248;6.808;2023-05-10T09:59:06;12.35;;;8.80;;
43248;SDS011;29216;51.248;6.808;2023-05-10T10:01:32;12.73;;;8.00;;
43248;SDS011;29216;51.248;6.808;2023-05-10T10:03:59;12.80;;;8.35;;
43248;SDS011;29216;51.248;6.808;2023-05-10T10:06:27;13.57;;;8.85;;
43248;SDS011;29216;51.248;6.808;2023-05-10T10:08:53;13.30;;;9.30;;
43248;SDS011;29216;51.248;6.808;2023-05-10T10:11:20;13.18;;;9.35;;
43248;SDS011;29216;51.248;6.808;2023-05-10T10:13:46;12.63;;;8.65;;
43248;SDS011;29216;51.248;6.808;2023-05-10T10:16:12;11.73;;;9.32;;
43248;SDS011;29216;51.248;6.808;2023-05-10T10:18:38;13.25;;;9.10;;
43248;SDS011;29216;51.248;6.808;2023-05-10T10:21:05;11.95;;;8.77;;
43248;SDS011;29216;51.248;6.808;2023-05-10T10:23:34;16.30;;;10.60;;
43248;SDS011;29216;51.248;6.808;2023-05-10T10:26:00;13.38;;;9.60;;
43248;SDS011;29216;51.248;6.808;2023-05-10T10:28:41;15.45;;;9.43;;
43248;SDS011;29216;51.248;6.808;2023-05-10T10:33:56;16.02;;;9.70;;
43248;SDS011;29216;51.248;6.808;2023-05-10T10:36:22;18.23;;;12.05;;
43248;SDS011;29216;51.248;6.808;2023-05-10T10:41:34;15.32;;;10.45;;
43248;SDS011;29216;51.248;6.808;2023-05-10T10:47:04;14.75;;;10.00;;
43248;SDS011;29216;51.248;6.808;2023-05-10T10:49:52;21.08;;;11.60;;
43248;SDS011;29216;51.248;6.808;2023-05-10T10:57:18;13.95;;;9.50;;
43248;SDS011;29216;51.248;6.808;2023-05-10T10:59:44;17.15;;;10.15;;
43248;SDS011;29216;51.248;6.808;2023-05-10T11:04:55;12.57;;;8.95;;
43248;SDS011;29216;51.248;6.808;2023-05-10T11:07:21;16.67;;;10.07;;
43248;SDS011;29216;51.248;6.808;2023-05-10T11:09:48;12.40;;;9.40;;
43248;SDS011;29216;51.248;6.808;2023-05-10T11:12:14;12.23;;;9.35;;
43248;SDS011;29216;51.248;6.808;2023-05-10T11:14:40;15.32;;;10.35;;
43248;SDS011;29216;51.248;6.808;2023-05-10T11:17:22;15.10;;;9.88;;
43248;SDS011;29216;51.248;6.808;2023-05-10T11:20:09;14.18;;;10.55;;
43248;SDS011;29216;51.248;6.808;2023-05-10T11:22:49;17.02;;;11.43;;
43248;SDS011;29216;51.248;6.808;2023-05-10T11:25:16;18.25;;;11.88;;
43248;SDS011;29216;51.248;6.808;2023-05-10T11:27:42;16.90;;;11.27;;
43248;SDS011;29216;51.248;6.808;2023-05-10T11:30:11;16.95;;;12.40;;
43248;SDS011;29216;51.248;6.808;2023-05-10T11:32:38;16.13;;;12.00;;
43248;SDS011;29216;51.248;6.808;2023-05-10T11:35:08;17.63;;;11.82;;
43248;SDS011;29216;51.248;6.808;2023-05-10T11:37:34;17.63;;;12.13;;
43248;SDS011;29216;51.248;6.808;2023-05-10T11:40:00;15.70;;;11.68;;
43248;SDS011;29216;51.248;6.808;2023-05-10T11:42:27;16.17;;;11.70;;
43248;SDS011;29216;51.248;6.808;2023-05-10T11:44:54;17.95;;;11.77;;
43248;SDS011;29216;51.248;6.808;2023-05-10T11:47:20;15.40;;;12.30;;
43248;SDS011;29216;51.248;6.808;2023-05-10T11:49:46;22.35;;;12.63;;
43248;SDS011;29216;51.248;6.808;2023-05-10T11:52:12;15.07;;;11.15;;
43248;SDS011;29216;51.248;6.808;2023-05-10T11:54:44;14.07;;;9.70;;
43248;SDS011;29216;51.248;6.808;2023-05-10T11:57:11;16.80;;;11.32;;
43248;SDS011;29216;51.248;6.808;2023-05-10T11:59:37;15.95;;;10.38;;
43248;SDS011;29216;51.248;6.808;2023-05-10T12:02:03;14.73;;;10.05;;
43248;SDS011;29216;51.248;6.808;2023-05-10T12:04:29;12.00;;;8.38;;
43248;SDS011;29216;51.248;6.808;2023-05-10T12:06:55;13.07;;;9.35;;
43248;SDS011;29216;51.248;6.808;2023-05-10T12:09:21;20.40;;;11.35;;
43248;SDS011;29216;51.248;6.808;2023-05-10T12:11:47;14.52;;;10.48;;
43248;SDS011;29216;51.248;6.808;2023-05-10T12:14:13;13.25;;;10.27;;
43248;SDS011;29216;51.248;6.808;2023-05-10T12:16:40;12.95;;;10.02;;
43248;SDS011;29216;51.248;6.808;2023-05-10T12:19:08;14.02;;;10.63;;
43248;SDS011;29216;51.248;6.808;2023-05-10T12:21:34;12.80;;;10.18;;
43248;SDS011;29216;51.248;6.808;2023-05-10T12:24:04;13.32;;;9.60;;
43248;SDS011;29216;51.248;6.808;2023-05-10T12:26:30;12.25;;;8.57;;
43248;SDS011;29216;51.248;6.808;2023-05-10T12:29:15;15.27;;;9.50;;
43248;SDS011;29216;51.248;6.808;2023-05-10T12:31:54;14.63;;;10.05;;
43248;SDS011;29216;51.248;6.808;2023-05-10T12:36:51;12.70;;;9.00;;
43248;SDS011;29216;51.248;6.808;2023-05-10T12:39:17;11.35;;;9.32;;
43248;SDS011;29216;51.248;6.808;2023-05-10T12:41:43;11.20;;;9.07;;
43248;SDS011;29216;51.248;6.808;2023-05-10T12:44:09;15.80;;;10.52;;
43248;SDS011;29216;51.248;6.808;2023-05-10T12:46:35;16.58;;;10.65;;
43248;SDS011;29216;51.248;6.808;2023-05-10T12:49:01;11.98;;;9.32;;
43248;SDS011;29216;51.248;6.808;2023-05-10T12:51:27;12.27;;;9.63;;
43248;SDS011;29216;51.248;6.808;2023-05-10T12:53:53;13.18;;;9.77;;
43248;SDS011;29216;51.248;6.808;2023-05-10T12:56:20;15.00;;;10.55;;
43248;SDS011;29216;51.248;6.808;2023-05-10T12:58:46;14.02;;;10.88;;
43248;SDS011;29216;51.248;6.808;2023-05-10T13:01:13;13.68;;;9.90;;
43248;SDS011;29216;51.248;6.808;2023-05-10T13:03:39;16.85;;;10.75;;
43248;SDS011;29216;51.248;6.808;2023-05-10T13:06:05;14.60;;;11.32;;
43248;SDS011;29216;51.248;6.808;2023-05-10T13:08:31;13.35;;;10.85;;
43248;SDS011;29216;51.248;6.808;2023-05-10T13:11:01;12.77;;;10.95;;
43248;SDS011;29216;51.248;6.808;2023-05-10T13:13:27;15.23;;;10.38;;
43248;SDS011;29216;51.248;6.808;2023-05-10T13:15:53;14.20;;;11.10;;
43248;SDS011;29216;51.248;6.808;2023-05-10T13:18:19;15.90;;;12.68;;
43248;SDS011;29216;51.248;6.808;2023-05-10T13:20:45;15.88;;;11.48;;
43248;SDS011;29216;51.248;6.808;2023-05-10T13:23:11;13.90;;;11.68;;
43248;SDS011;29216;51.248;6.808;2023-05-10T13:25:37;13.07;;;10.88;;
43248;SDS011;29216;51.248;6.808;2023-05-10T13:28:04;15.55;;;12.18;;
43248;SDS011;29216;51.248;6.808;2023-05-10T13:30:30;15.25;;;11.70;;
43248;SDS011;29216;51.248;6.808;2023-05-10T13:32:56;13.80;;;12.30;;
43248;SDS011;29216;51.248;6.808;2023-05-10T13:35:22;12.43;;;9.88;;
43248;SDS011;29216;51.248;6.808;2023-05-10T13:37:48;14.90;;;11.57;;
43248;SDS011;29216;51.248;6.808;2023-05-10T13:40:14;15.02;;;11.98;;
43248;SDS011;29216;51.248;6.808;2023-05-10T13:42:40;13.88;;;11.35;;
43248;SDS011;29216;51.248;6.808;2023-05-10T13:45:06;12.00;;;10.13;;
43248;SDS011;29216;51.248;6.808;2023-05-10T13:47:32;12.45;;;9.85;;
43248;SDS011;29216;51.248;6.808;2023-05-10T13:49:58;13.32;;;9.70;;
43248;SDS011;29216;51.248;6.808;2023-05-10T13:52:25;13.82;;;10.43;;
43248;SDS011;29216;51.248;6.808;2023-05-10T13:54:51;11.43;;;9.80;;
43248;SDS011;29216;51.248;6.808;2023-05-10T13:57:19;13.35;;;10.20;;
43248;SDS011;29216;51.248;6.808;2023-05-10T13:59:45;13.15;;;10.95;;
43248;SDS011;29216;51.248;6.808;2023-05-10T14:02:14;13.60;;;10.05;;
43248;SDS011;29216;51.248;6.808;2023-05-10T14:04:40;13.02;;;10.45;;
43248;SDS011;29216;51.248;6.808;2023-05-10T14:07:06;14.82;;;12.05;;
43248;SDS011;29216;51.248;6.808;2023-05-10T14:09:32;12.05;;;10.65;;
43248;SDS011;29216;51.248;6.808;2023-05-10T14:11:58;15.38;;;11.00;;
43248;SDS011;29216;51.248;6.808;2023-05-10T14:14:24;12.45;;;10.52;;
43248;SDS011;29216;51.248;6.808;2023-05-10T14:16:50;12.95;;;10.95;;
43248;SDS011;29216;51.248;6.808;2023-05-10T14:19:16;15.20;;;10.98;;
43248;SDS011;29216;51.248;6.808;2023-05-10T14:21:42;14.13;;;10.57;;
43248;SDS011;29216;51.248;6.808;2023-05-10T14:24:09;11.88;;;10.00;;
43248;SDS011;29216;51.248;6.808;2023-05-10T14:26:35;13.68;;;10.82;;
43248;SDS011;29216;51.248;6.808;2023-05-10T14:29:01;15.75;;;11.18;;
43248;SDS011;29216;51.248;6.808;2023-05-10T14:31:27;13.07;;;10.30;;
43248;SDS011;29216;51.248;6.808;2023-05-10T14:33:55;14.95;;;11.15;;
43248;SDS011;29216;51.248;6.808;2023-05-10T14:36:22;10.48;;;9.07;;
43248;SDS011;29216;51.248;6.808;2023-05-10T14:38:47;13.13;;;9.70;;
43248;SDS011;29216;51.248;6.808;2023-05-10T14:41:15;13.23;;;9.88;;
43248;SDS011;29216;51.248;6.808;2023-05-10T14:43:42;11.98;;;9.57;;
43248;SDS011;29216;51.248;6.808;2023-05-10T14:46:08;13.25;;;8.90;;
43248;SDS011;29216;51.248;6.808;2023-05-10T14:48:34;12.43;;;9.25;;